createdAt,value
2017-07-03T15:41:09.853Z,37.45
2017-07-03T15:42:09.482Z,38.13
2017-07-03T15:43:09.813Z,37.35
2017-07-03T15:44:09.810Z,37.45
2017-07-03T15:45:09.869Z,38.42
2017-07-03T15:46:09.814Z,36.68
2017-07-03T15:47:09.501Z,35.63
2017-07-03T15:48:09.823Z,36.02
2017-07-03T15:49:09.834Z,35.05
2017-07-03T15:50:10.281Z,34.75
2017-07-03T15:51:10.641Z,34.58
2017-07-03T15:52:09.849Z,33.8
2017-07-03T15:53:09.854Z,32.64
2017-07-03T15:54:09.537Z,33.12
2017-07-03T15:55:09.942Z,32.04
2017-07-03T15:56:09.667Z,32.32
2017-07-03T15:57:09.911Z,33.11
2017-07-03T15:58:09.887Z,33.49
2017-07-03T15:59:09.896Z,33.28
2017-07-03T16:00:10.324Z,33.47
2017-07-03T16:01:09.583Z,34.75
2017-07-03T16:02:09.933Z,34.75
2017-07-03T16:03:09.920Z,34.66
2017-07-03T16:04:09.600Z,33.9
2017-07-03T16:05:10.403Z,33.7
2017-07-03T16:06:09.932Z,33.8
2017-07-03T16:07:09.618Z,34.08
2017-07-03T16:08:09.948Z,33.88
2017-07-03T16:09:09.635Z,33.49
2017-07-03T16:10:10.287Z,33.11
2017-07-03T16:11:10.015Z,33.49
2017-07-03T16:12:09.652Z,33.98
2017-07-03T16:13:09.992Z,34.56
2017-07-03T16:14:09.983Z,34.83
2017-07-03T16:15:10.466Z,34.83
2017-07-03T16:16:09.998Z,34.93
2017-07-03T16:17:10.004Z,35.03
2017-07-03T16:18:09.688Z,34.93
2017-07-03T16:19:09.769Z,35.41
2017-07-03T16:20:10.172Z,34.74
2017-07-03T16:21:10.083Z,34.64
2017-07-03T16:22:09.714Z,35.22
2017-07-03T16:23:10.111Z,34.44
2017-07-03T16:24:09.726Z,34.53
2017-07-03T16:25:10.026Z,34.72
2017-07-03T16:26:09.791Z,35.3
2017-07-03T16:27:09.755Z,35.61
2017-07-03T16:28:10.085Z,35.9
2017-07-03T16:29:09.761Z,35.32
2017-07-03T16:30:10.146Z,34.74
2017-07-03T16:31:09.775Z,35.41
2017-07-03T16:32:09.776Z,36.1
2017-07-03T16:33:09.783Z,35.49
2017-07-03T16:34:10.109Z,35.98
2017-07-03T16:35:10.106Z,36.66
2017-07-03T16:36:09.806Z,36.56
2017-07-03T16:37:10.129Z,36.56
2017-07-03T16:38:10.139Z,37.15
2017-07-03T16:39:10.183Z,36.27
2017-07-03T16:40:10.542Z,36.36
2017-07-03T16:41:10.410Z,36.36
2017-07-03T16:42:09.839Z,36.46
2017-07-03T16:43:09.842Z,36.08
2017-07-03T16:44:10.170Z,35.9
2017-07-03T16:45:10.207Z,34.83
2017-07-03T16:46:10.178Z,34.64
2017-07-03T16:47:10.189Z,34.54
2017-07-03T16:48:10.190Z,34.81
2017-07-03T16:49:10.202Z,35.01
2017-07-03T16:50:10.895Z,34.62
2017-07-03T16:51:10.209Z,34.23
2017-07-03T16:52:09.896Z,34.62
2017-07-03T16:53:10.228Z,34.61
2017-07-03T16:54:10.234Z,34.99
2017-07-03T16:55:10.459Z,35.19
2017-07-03T16:56:09.920Z,35.57
2017-07-03T16:57:10.250Z,35.86
2017-07-03T16:58:10.252Z,35.96
2017-07-03T16:59:09.936Z,36.35
2017-07-03T17:00:10.447Z,36.83
2017-07-03T17:01:10.266Z,37.4
2017-07-03T17:02:10.273Z,37.4
2017-07-03T17:03:09.962Z,37.59
2017-07-03T17:04:10.290Z,38.56
2017-07-03T17:05:10.574Z,38.27
2017-07-03T17:06:09.989Z,38.54
2017-07-03T17:07:09.983Z,37.38
2017-07-03T17:08:10.002Z,38.35
2017-07-03T17:09:10.315Z,38.73
2017-07-03T17:10:11.160Z,38.83
2017-07-03T17:11:10.323Z,38.53
2017-07-03T17:12:10.328Z,38.91
2017-07-03T17:13:10.023Z,38.13
2017-07-03T17:14:10.340Z,38.23
2017-07-03T17:15:11.176Z,38.33
2017-07-03T17:16:10.349Z,39.01
2017-07-03T17:17:10.353Z,38.62
2017-07-03T17:18:10.043Z,39.01
2017-07-03T17:19:10.364Z,39.59
2017-07-03T17:20:10.546Z,39.49
2017-07-03T17:21:10.058Z,39.39
2017-07-03T17:22:10.381Z,39.78
2017-07-03T17:23:10.064Z,39.49
2017-07-03T17:24:10.394Z,39.78
2017-07-03T17:25:10.985Z,39.97
2017-07-03T17:26:10.081Z,39.97
2017-07-03T17:27:10.137Z,39.69
2017-07-03T17:28:10.411Z,39.41
2017-07-03T17:29:10.415Z,39.39
2017-07-03T17:30:11.028Z,39.8
2017-07-03T17:31:10.431Z,39.61
2017-07-03T17:32:10.433Z,38.83
2017-07-03T17:33:10.435Z,39.9
2017-07-03T17:34:10.447Z,39.61
2017-07-03T17:35:11.207Z,39.7
2017-07-03T17:36:10.131Z,39.8
2017-07-03T17:37:10.137Z,40
2017-07-03T17:38:10.461Z,39.9
2017-07-03T17:39:10.148Z,40
2017-07-03T17:40:10.686Z,40.48
2017-07-03T17:41:10.476Z,40.48
2017-07-03T17:42:10.343Z,40.09
2017-07-03T17:43:10.173Z,39.8
2017-07-03T17:44:10.178Z,39.7
2017-07-03T17:45:11.154Z,39.7
2017-07-03T17:46:10.183Z,39.7
2017-07-03T17:47:10.560Z,40.38
2017-07-03T17:48:10.751Z,40.09
2017-07-03T17:49:10.200Z,40
2017-07-03T17:50:10.955Z,40
2017-07-03T17:51:10.541Z,40
2017-07-03T17:52:10.276Z,40
2017-07-03T17:53:10.227Z,40.28
2017-07-03T17:54:10.547Z,40.46
2017-07-03T17:55:11.078Z,40.38
2017-07-03T17:56:10.234Z,40.75
2017-07-03T17:57:11.869Z,41.14
2017-07-03T17:58:10.249Z,41.33
2017-07-03T17:59:10.569Z,41.62
2017-07-03T18:00:36.337Z,41.33
2017-07-03T18:01:10.266Z,41.14
2017-07-03T18:02:10.268Z,41.04
2017-07-03T18:03:10.283Z,41.42
2017-07-03T18:04:10.281Z,41.72
2017-07-03T18:05:10.991Z,41.42
2017-07-03T18:06:10.608Z,41.72
2017-07-03T18:07:10.291Z,41.52
2017-07-03T18:08:10.296Z,41.72
2017-07-03T18:09:10.301Z,41.72
2017-07-03T18:10:10.974Z,41.41
2017-07-03T18:11:10.889Z,41.89
2017-07-03T18:12:10.634Z,41.91
2017-07-03T18:13:10.337Z,42.49
2017-07-03T18:14:10.672Z,42.37
2017-07-03T18:15:11.533Z,42.28
2017-07-03T18:16:10.672Z,42.76
2017-07-03T18:17:10.674Z,42.96
2017-07-03T18:18:10.778Z,43.15
2017-07-03T18:19:10.674Z,43.44
2017-07-03T18:20:11.006Z,43.73
2017-07-03T18:21:10.359Z,43.73
2017-07-03T18:22:10.693Z,43.92
2017-07-03T18:23:10.694Z,44.12
2017-07-03T18:24:10.696Z,43.05
2017-07-03T18:25:10.932Z,42.86
2017-07-03T18:26:10.706Z,43.15
2017-07-03T18:27:10.713Z,43.05
2017-07-03T18:28:10.716Z,43.44
2017-07-03T18:29:10.718Z,43.23
2017-07-03T18:30:11.146Z,42.93
2017-07-03T18:31:10.740Z,42.57
2017-07-03T18:32:10.738Z,42.47
2017-07-03T18:33:10.419Z,42.74
2017-07-03T18:34:10.422Z,43.13
2017-07-03T18:35:11.088Z,43.13
2017-07-03T18:36:10.431Z,42.93
2017-07-03T18:37:10.775Z,42.83
2017-07-03T18:38:10.767Z,43.23
2017-07-03T18:39:10.767Z,43.23
2017-07-03T18:40:10.799Z,42.93
2017-07-03T18:41:10.454Z,43.32
2017-07-03T18:42:10.460Z,43.9
2017-07-03T18:43:11.635Z,43.61
2017-07-03T18:44:10.787Z,43.8
2017-07-03T18:45:11.501Z,43.88
2017-07-03T18:46:10.796Z,44.56
2017-07-03T18:47:10.481Z,44.46
2017-07-03T18:48:10.809Z,44.84
2017-07-03T18:49:10.495Z,44.94
2017-07-03T18:50:11.761Z,44.75
2017-07-03T18:51:10.502Z,45.42
2017-07-03T18:52:10.830Z,45.33
2017-07-03T18:53:11.633Z,45.62
2017-07-03T18:54:10.839Z,45.33
2017-07-03T18:55:11.666Z,45.81
2017-07-03T18:56:10.544Z,45.91
2017-07-03T18:57:10.852Z,45.89
2017-07-03T18:58:10.855Z,46.39
